createdAt,value
2022-08-02T14:15:48.701Z,0.60
2022-08-02T14:20:53.608Z,0.50
2022-08-02T14:25:58.920Z,0.50
2022-08-02T14:31:05.070Z,0.50
2022-08-02T14:36:09.717Z,0.60
2022-08-02T14:41:14.007Z,0.50
2022-08-02T14:46:19.953Z,0.35
2022-08-02T14:51:24.674Z,0.40
2022-08-02T14:56:29.416Z,0.30
2022-08-02T15:01:35.442Z,0.52
2022-08-02T15:06:39.968Z,0.30
2022-08-02T15:11:47.876Z,0.77
2022-08-02T15:16:58.007Z,0.30
2022-08-02T15:22:03.350Z,0.40
2022-08-02T15:27:13.111Z,0.90
2022-08-02T15:32:19.989Z,0.60
2022-08-02T15:37:25.372Z,0.60
2022-08-02T15:42:30.240Z,0.70
2022-08-02T15:47:36.937Z,0.30
2022-08-02T15:52:41.491Z,0.70
2022-08-02T15:57:46.901Z,0.23
2022-08-02T16:02:52.600Z,0.38
2022-08-02T16:07:58.151Z,0.60
2022-08-02T16:13:16.672Z,0.60
2022-08-02T16:18:22.379Z,0.70
2022-08-02T16:23:59.592Z,0.70
2022-08-02T16:28:51.034Z,0.52
2022-08-02T16:33:57.415Z,0.50
2022-08-02T16:39:02.064Z,0.57
2022-08-02T16:44:06.729Z,0.60
2022-08-02T16:50:04.128Z,0.50
2022-08-02T16:54:38.221Z,0.70
2022-08-02T16:59:45.231Z,0.70
2022-08-02T17:05:04.161Z,0.80
2022-08-02T17:10:10.226Z,0.80
2022-08-02T17:16:17.034Z,0.60
2022-08-02T17:20:40.720Z,1.10
2022-08-02T17:25:52.429Z,1.00
2022-08-02T17:30:57.240Z,1.00
2022-08-02T17:36:03.199Z,1.20
2022-08-02T17:41:07.621Z,1.23
2022-08-02T17:46:19.603Z,1.43
2022-08-02T17:51:32.967Z,1.10
2022-08-02T17:56:52.047Z,1.20
2022-08-02T18:01:58.418Z,1.10
2022-08-02T18:07:11.217Z,1.10
2022-08-02T18:12:21.338Z,1.27
2022-08-02T18:17:26.044Z,1.17
2022-08-02T18:22:35.131Z,1.00
2022-08-02T18:27:41.815Z,1.60
2022-08-02T18:33:55.168Z,1.20
2022-08-02T18:38:16.097Z,1.25
2022-08-02T18:43:25.747Z,1.50
2022-08-02T18:48:33.875Z,1.20
2022-08-02T18:53:43.267Z,1.65
2022-08-02T18:58:47.735Z,1.40
2022-08-02T19:03:52.887Z,1.55
2022-08-02T19:09:11.198Z,1.30
2022-08-02T19:14:27.804Z,1.40
2022-08-02T19:19:33.062Z,1.58
2022-08-02T19:24:39.137Z,1.60
2022-08-02T19:40:41.873Z,1.90
2022-08-02T19:45:51.208Z,1.70
2022-08-02T19:50:59.204Z,1.88
2022-08-02T19:56:07.275Z,1.80
2022-08-02T20:01:16.517Z,1.60
2022-08-02T20:06:29.622Z,1.60
2022-08-02T20:11:36.149Z,1.67
2022-08-02T20:16:42.441Z,1.90
2022-08-02T20:21:54.169Z,2.20
2022-08-02T20:27:16.906Z,2.90
2022-08-02T20:32:26.556Z,2.35
2022-08-02T20:38:00.219Z,2.10
2022-08-02T20:42:57.521Z,1.80
2022-08-02T20:48:01.899Z,1.90
2022-08-02T20:53:08.154Z,2.10
2022-08-02T20:58:31.056Z,3.08
2022-08-02T21:03:39.769Z,2.10
2022-08-02T21:08:46.069Z,2.60
2022-08-02T21:14:08.308Z,1.52
2022-08-02T21:19:13.744Z,1.60
2022-08-02T21:24:18.153Z,1.50
2022-08-02T21:29:33.220Z,1.83
2022-08-02T21:34:37.858Z,2.22
2022-08-02T21:39:42.355Z,2.10
2022-08-02T21:44:55.580Z,1.77
2022-08-02T21:50:13.518Z,1.57
2022-08-02T21:55:24.005Z,1.27
2022-08-02T22:00:42.598Z,1.37
2022-08-02T22:05:47.449Z,1.30
2022-08-02T22:11:04.526Z,1.90
2022-08-02T22:16:22.850Z,1.80
2022-08-02T22:21:32.389Z,1.40
2022-08-02T22:26:51.029Z,1.30
2022-08-02T22:31:56.693Z,1.50
2022-08-02T22:37:02.000Z,3.50
2022-08-02T22:42:10.365Z,2.10
2022-08-02T22:47:16.071Z,2.63
2022-08-02T22:52:21.039Z,3.35
2022-08-02T22:57:31.074Z,2.65
2022-08-02T22:58:48.175Z,1.55
2022-08-02T22:59:06.041Z,1.50
2022-08-02T23:02:37.650Z,2.67
2022-08-02T23:07:42.902Z,1.73
2022-08-02T23:12:47.341Z,1.70
2022-08-02T23:18:25.190Z,2.87
2022-08-02T23:23:29.903Z,2.65
2022-08-02T23:28:34.609Z,1.75
2022-08-02T23:34:03.778Z,2.87
2022-08-02T23:39:05.600Z,2.60
2022-08-02T23:44:14.869Z,2.35
2022-08-02T23:49:22.820Z,2.50
2022-08-02T23:54:27.360Z,1.90
2022-08-02T23:59:33.049Z,2.67
